Aérodrome :
LOGIN :

S'inscrire | Disclaimer

   EN    FR    IT 

 










Légende :    VFR   VFR Marginal   IFR   IFR Intensif   IFR Très Intensif
Visi : 
Plafond : 
>= 8 km
>= 3000ft
5 à 8 km
1000 à 3000 ft
1500m à 5 km
500 à 1000 ft
800 à 1500m
200 à 500 ft
< 800m
< 200 ft
Symboles :   Orages  Brouillard  Fortes neiges  Fortes précipitations  Vent > 20 kt
SIGMETs :   Divers  Orages  Givrage  Turbulence  Onde Orograph.  Cendres Volcan.







- Altitude de l'aérodrome : 14 ft
- Code IATA : BRE


EDDW - Bremen Neuenland

DERNIER METAR :
  • 292120Z 05003KT CAVOK 05/01 Q1019

METARs EXPIRÉS :
  • 292050Z 06003KT CAVOK 05/01 Q1019 NOSIG
  • 292020Z 05003KT CAVOK 06/01 Q1019 NOSIG
  • 291950Z 04003KT CAVOK 07/00 Q1019 NOSIG
  • 291920Z 03004KT CAVOK 08/01 Q1018 NOSIG
  • 291850Z 03006KT 9999 FEW030 08/01 Q1018 NOSIG

TAF TAF EDDW
Valide du 29 à 18h jusqu'au 30 à 18h UTC


291700Z 2918/3018 35005KT CAVOK
BECMG 2919/2921 09004KT
BECMG 3007/3009 11013KT
TEMPO 3010/3017 12015G25KT
Pas de NOTAMs connus pour ce terrain.



MET'MAP, la Météo Aéronautique d'un coup d'oeil ! - Copyright ORBIFLY Décembre 2007 - Disclaimer

ORBIFLY MET'MAP TEAM :

Programmation & Développement : Alexandra Zaïnal
Conception & Développement : Baudouin d'Aumeries
Co-Programmation & Développement : Marc-Olivier Méhu
Soutien technique & logistique : Manuel Goepfert

Contact : metmap@orbifly.com




SOURCES & CREDITS :

   NOAA